sensor_id;sensor_type;location;lat;lon;timestamp;P1;durP1;ratioP1;P2;durP2;ratioP2
78931;SDS011;68331;53.362;55.932;2023-09-19T00:00:46;7.63;;;6.60;;
78931;SDS011;68331;53.362;55.932;2023-09-19T00:03:15;8.20;;;5.32;;
78931;SDS011;68331;53.362;55.932;2023-09-19T00:05:41;6.57;;;5.82;;
78931;SDS011;68331;53.362;55.932;2023-09-19T00:08:10;7.72;;;5.18;;
78931;SDS011;68331;53.362;55.932;2023-09-19T00:10:39;7.88;;;5.25;;
78931;SDS011;68331;53.362;55.932;2023-09-19T00:13:06;7.15;;;5.25;;
78931;SDS011;68331;53.362;55.932;2023-09-19T00:15:37;6.90;;;5.85;;
78931;SDS011;68331;53.362;55.932;2023-09-19T00:18:05;8.63;;;6.45;;
78931;SDS011;68331;53.362;55.932;2023-09-19T00:20:38;8.00;;;5.30;;
78931;SDS011;68331;53.362;55.932;2023-09-19T00:23:05;10.38;;;6.38;;
78931;SDS011;68331;53.362;55.932;2023-09-19T00:25:31;6.28;;;4.82;;
78931;SDS011;68331;53.362;55.932;2023-09-19T00:27:58;6.88;;;5.38;;
78931;SDS011;68331;53.362;55.932;2023-09-19T00:30:23;8.18;;;6.35;;
78931;SDS011;68331;53.362;55.932;2023-09-19T00:35:18;7.45;;;6.03;;
78931;SDS011;68331;53.362;55.932;2023-09-19T00:37:44;10.07;;;5.00;;
78931;SDS011;68331;53.362;55.932;2023-09-19T00:40:11;6.43;;;4.53;;
78931;SDS011;68331;53.362;55.932;2023-09-19T00:42:44;9.25;;;4.95;;
78931;SDS011;68331;53.362;55.932;2023-09-19T00:45:12;7.40;;;5.70;;
78931;SDS011;68331;53.362;55.932;2023-09-19T00:47:48;6.82;;;5.45;;
78931;SDS011;68331;53.362;55.932;2023-09-19T00:50:18;8.63;;;5.78;;
78931;SDS011;68331;53.362;55.932;2023-09-19T00:52:47;6.60;;;4.88;;
78931;SDS011;68331;53.362;55.932;2023-09-19T00:55:15;7.78;;;4.68;;
78931;SDS011;68331;53.362;55.932;2023-09-19T00:57:46;8.30;;;4.75;;
78931;SDS011;68331;53.362;55.932;2023-09-19T01:00:13;7.13;;;5.75;;
78931;SDS011;68331;53.362;55.932;2023-09-19T01:05:08;7.95;;;5.53;;
78931;SDS011;68331;53.362;55.932;2023-09-19T01:07:35;6.68;;;4.75;;
78931;SDS011;68331;53.362;55.932;2023-09-19T01:10:06;7.78;;;5.38;;
78931;SDS011;68331;53.362;55.932;2023-09-19T01:15:12;7.70;;;6.13;;
78931;SDS011;68331;53.362;55.932;2023-09-19T01:29:39;7.05;;;4.85;;
78931;SDS011;68331;53.362;55.932;2023-09-19T01:32:10;7.82;;;5.35;;
78931;SDS011;68331;53.362;55.932;2023-09-19T01:34:43;38.03;;;8.65;;
78931;SDS011;68331;53.362;55.932;2023-09-19T01:37:14;11.30;;;6.88;;
78931;SDS011;68331;53.362;55.932;2023-09-19T01:40:03;7.40;;;5.72;;
78931;SDS011;68331;53.362;55.932;2023-09-19T01:42:58;10.50;;;6.65;;
78931;SDS011;68331;53.362;55.932;2023-09-19T01:45:59;10.15;;;6.60;;
78931;SDS011;68331;53.362;55.932;2023-09-19T01:48:25;9.23;;;6.97;;
78931;SDS011;68331;53.362;55.932;2023-09-19T01:51:05;8.90;;;6.05;;
78931;SDS011;68331;53.362;55.932;2023-09-19T01:53:52;10.75;;;6.15;;
78931;SDS011;68331;53.362;55.932;2023-09-19T01:56:34;10.52;;;7.40;;
78931;SDS011;68331;53.362;55.932;2023-09-19T01:59:25;9.05;;;5.85;;
78931;SDS011;68331;53.362;55.932;2023-09-19T02:01:58;9.70;;;6.43;;
78931;SDS011;68331;53.362;55.932;2023-09-19T02:04:26;27.30;;;20.05;;
78931;SDS011;68331;53.362;55.932;2023-09-19T02:06:52;9.05;;;6.20;;
78931;SDS011;68331;53.362;55.932;2023-09-19T02:09:19;10.75;;;7.43;;
78931;SDS011;68331;53.362;55.932;2023-09-19T02:11:45;11.23;;;6.00;;
78931;SDS011;68331;53.362;55.932;2023-09-19T02:14:12;9.95;;;7.15;;
78931;SDS011;68331;53.362;55.932;2023-09-19T02:16:38;9.52;;;6.22;;
78931;SDS011;68331;53.362;55.932;2023-09-19T02:19:04;10.23;;;7.32;;
78931;SDS011;68331;53.362;55.932;2023-09-19T02:21:31;10.15;;;5.68;;
78931;SDS011;68331;53.362;55.932;2023-09-19T02:23:58;11.27;;;6.50;;
78931;SDS011;68331;53.362;55.932;2023-09-19T02:26:25;9.25;;;7.10;;
78931;SDS011;68331;53.362;55.932;2023-09-19T02:28:53;10.10;;;6.28;;
78931;SDS011;68331;53.362;55.932;2023-09-19T02:31:19;18.25;;;7.18;;
78931;SDS011;68331;53.362;55.932;2023-09-19T02:33:45;15.55;;;7.90;;
78931;SDS011;68331;53.362;55.932;2023-09-19T02:36:12;8.25;;;6.18;;
78931;SDS011;68331;53.362;55.932;2023-09-19T02:38:38;16.92;;;7.43;;
78931;SDS011;68331;53.362;55.932;2023-09-19T02:41:04;11.65;;;6.47;;
78931;SDS011;68331;53.362;55.932;2023-09-19T02:43:29;13.25;;;7.63;;
78931;SDS011;68331;53.362;55.932;2023-09-19T02:45:55;10.95;;;7.82;;
78931;SDS011;68331;53.362;55.932;2023-09-19T02:48:22;15.18;;;7.90;;
78931;SDS011;68331;53.362;55.932;2023-09-19T02:53:16;14.20;;;7.22;;
78931;SDS011;68331;53.362;55.932;2023-09-19T02:55:42;12.77;;;7.15;;
78931;SDS011;68331;53.362;55.932;2023-09-19T02:58:09;11.88;;;7.18;;
78931;SDS011;68331;53.362;55.932;2023-09-19T03:00:37;12.90;;;7.03;;
78931;SDS011;68331;53.362;55.932;2023-09-19T03:03:08;15.43;;;6.90;;
78931;SDS011;68331;53.362;55.932;2023-09-19T03:05:35;14.18;;;7.70;;
78931;SDS011;68331;53.362;55.932;2023-09-19T03:08:01;14.50;;;6.28;;
78931;SDS011;68331;53.362;55.932;2023-09-19T03:10:27;16.13;;;6.78;;
78931;SDS011;68331;53.362;55.932;2023-09-19T03:12:56;14.18;;;6.35;;
78931;SDS011;68331;53.362;55.932;2023-09-19T03:15:25;16.27;;;6.95;;
78931;SDS011;68331;53.362;55.932;2023-09-19T03:17:52;13.82;;;6.95;;
78931;SDS011;68331;53.362;55.932;2023-09-19T03:20:22;21.55;;;9.75;;
78931;SDS011;68331;53.362;55.932;2023-09-19T03:22:50;24.98;;;13.13;;
78931;SDS011;68331;53.362;55.932;2023-09-19T03:25:18;96.22;;;13.70;;
78931;SDS011;68331;53.362;55.932;2023-09-19T03:27:51;36.10;;;10.18;;
78931;SDS011;68331;53.362;55.932;2023-09-19T03:30:19;21.20;;;7.90;;
78931;SDS011;68331;53.362;55.932;2023-09-19T03:32:48;15.18;;;6.82;;
78931;SDS011;68331;53.362;55.932;2023-09-19T03:35:17;13.00;;;8.00;;
78931;SDS011;68331;53.362;55.932;2023-09-19T03:37:43;14.07;;;6.18;;
78931;SDS011;68331;53.362;55.932;2023-09-19T03:40:10;13.48;;;7.80;;
78931;SDS011;68331;53.362;55.932;2023-09-19T03:42:40;13.25;;;7.38;;
78931;SDS011;68331;53.362;55.932;2023-09-19T03:45:09;23.35;;;8.63;;
78931;SDS011;68331;53.362;55.932;2023-09-19T03:47:41;70.07;;;12.88;;
78931;SDS011;68331;53.362;55.932;2023-09-19T03:50:09;32.70;;;8.45;;
78931;SDS011;68331;53.362;55.932;2023-09-19T03:52:43;40.85;;;10.43;;
78931;SDS011;68331;53.362;55.932;2023-09-19T03:55:10;28.90;;;8.88;;
78931;SDS011;68331;53.362;55.932;2023-09-19T03:57:40;21.65;;;8.00;;
78931;SDS011;68331;53.362;55.932;2023-09-19T04:00:08;23.10;;;8.45;;
78931;SDS011;68331;53.362;55.932;2023-09-19T04:02:40;24.85;;;9.43;;
78931;SDS011;68331;53.362;55.932;2023-09-19T04:05:07;12.25;;;8.50;;
78931;SDS011;68331;53.362;55.932;2023-09-19T04:07:35;13.68;;;7.85;;
78931;SDS011;68331;53.362;55.932;2023-09-19T04:10:00;15.38;;;7.03;;
78931;SDS011;68331;53.362;55.932;2023-09-19T04:12:31;13.65;;;5.78;;
78931;SDS011;68331;53.362;55.932;2023-09-19T04:14:58;13.63;;;7.95;;
78931;SDS011;68331;53.362;55.932;2023-09-19T04:17:24;22.17;;;8.02;;
78931;SDS011;68331;53.362;55.932;2023-09-19T04:19:51;52.92;;;11.05;;
78931;SDS011;68331;53.362;55.932;2023-09-19T04:22:17;25.75;;;7.47;;
78931;SDS011;68331;53.362;55.932;2023-09-19T04:24:43;16.88;;;7.63;;
78931;SDS011;68331;53.362;55.932;2023-09-19T04:27:10;33.33;;;10.43;;
78931;SDS011;68331;53.362;55.932;2023-09-19T04:29:37;25.63;;;9.50;;
78931;SDS011;68331;53.362;55.932;2023-09-19T04:34:31;15.85;;;7.78;;
78931;SDS011;68331;53.362;55.932;2023-09-19T04:36:59;14.10;;;8.05;;
78931;SDS011;68331;53.362;55.932;2023-09-19T04:39:26;14.38;;;6.70;;
78931;SDS011;68331;53.362;55.932;2023-09-19T04:41:53;12.27;;;7.63;;
78931;SDS011;68331;53.362;55.932;2023-09-19T04:46:48;11.65;;;7.13;;
78931;SDS011;68331;53.362;55.932;2023-09-19T04:49:15;9.57;;;7.68;;
78931;SDS011;68331;53.362;55.932;2023-09-19T04:51:41;11.32;;;7.30;;
78931;SDS011;68331;53.362;55.932;2023-09-19T04:54:07;17.50;;;8.77;;
78931;SDS011;68331;53.362;55.932;2023-09-19T04:56:36;16.83;;;8.63;;
78931;SDS011;68331;53.362;55.932;2023-09-19T04:59:05;13.45;;;9.50;;
78931;SDS011;68331;53.362;55.932;2023-09-19T05:01:32;11.90;;;8.15;;
78931;SDS011;68331;53.362;55.932;2023-09-19T05:03:58;11.25;;;8.50;;
78931;SDS011;68331;53.362;55.932;2023-09-19T05:06:24;11.40;;;9.10;;
78931;SDS011;68331;53.362;55.932;2023-09-19T05:08:51;14.32;;;8.57;;
78931;SDS011;68331;53.362;55.932;2023-09-19T05:11:19;13.48;;;9.15;;
78931;SDS011;68331;53.362;55.932;2023-09-19T05:13:48;16.70;;;10.05;;
78931;SDS011;68331;53.362;55.932;2023-09-19T05:16:21;14.80;;;9.20;;
78931;SDS011;68331;53.362;55.932;2023-09-19T05:18:47;17.60;;;9.65;;
78931;SDS011;68331;53.362;55.932;2023-09-19T05:21:15;14.32;;;8.50;;
78931;SDS011;68331;53.362;55.932;2023-09-19T05:23:41;7.95;;;6.88;;
78931;SDS011;68331;53.362;55.932;2023-09-19T05:26:10;15.50;;;7.78;;
78931;SDS011;68331;53.362;55.932;2023-09-19T05:28:36;14.65;;;9.00;;
78931;SDS011;68331;53.362;55.932;2023-09-19T05:31:03;17.15;;;10.15;;
78931;SDS011;68331;53.362;55.932;2023-09-19T05:33:29;16.60;;;9.45;;
78931;SDS011;68331;53.362;55.932;2023-09-19T05:35:57;13.10;;;8.73;;
78931;SDS011;68331;53.362;55.932;2023-09-19T05:38:23;12.18;;;8.45;;
78931;SDS011;68331;53.362;55.932;2023-09-19T05:43:16;18.63;;;12.02;;
78931;SDS011;68331;53.362;55.932;2023-09-19T05:45:42;23.13;;;12.23;;
78931;SDS011;68331;53.362;55.932;2023-09-19T05:48:09;21.02;;;12.15;;
78931;SDS011;68331;53.362;55.932;2023-09-19T05:50:37;24.17;;;12.82;;
78931;SDS011;68331;53.362;55.932;2023-09-19T05:53:04;18.65;;;10.68;;
78931;SDS011;68331;53.362;55.932;2023-09-19T05:55:30;20.13;;;11.85;;
78931;SDS011;68331;53.362;55.932;2023-09-19T05:57:57;23.75;;;13.07;;
78931;SDS011;68331;53.362;55.932;2023-09-19T06:00:23;15.32;;;9.63;;
78931;SDS011;68331;53.362;55.932;2023-09-19T06:02:54;18.17;;;10.93;;
78931;SDS011;68331;53.362;55.932;2023-09-19T06:05:21;17.38;;;10.73;;
78931;SDS011;68331;53.362;55.932;2023-09-19T06:07:47;22.92;;;10.55;;
78931;SDS011;68331;53.362;55.932;2023-09-19T06:10:13;15.57;;;9.88;;
78931;SDS011;68331;53.362;55.932;2023-09-19T06:12:44;15.32;;;8.50;;
78931;SDS011;68331;53.362;55.932;2023-09-19T06:15:12;12.98;;;7.53;;
78931;SDS011;68331;53.362;55.932;2023-09-19T06:17:52;10.57;;;7.90;;
78931;SDS011;68331;53.362;55.932;2023-09-19T06:20:23;15.35;;;8.52;;
78931;SDS011;68331;53.362;55.932;2023-09-19T06:22:51;21.52;;;9.95;;
78931;SDS011;68331;53.362;55.932;2023-09-19T06:25:17;14.18;;;7.57;;
78931;SDS011;68331;53.362;55.932;2023-09-19T06:27:51;13.23;;;7.53;;
78931;SDS011;68331;53.362;55.932;2023-09-19T06:30:20;10.73;;;8.02;;
78931;SDS011;68331;53.362;55.932;2023-09-19T06:32:47;13.15;;;7.55;;
78931;SDS011;68331;53.362;55.932;2023-09-19T06:35:14;23.52;;;12.23;;
78931;SDS011;68331;53.362;55.932;2023-09-19T06:37:42;26.92;;;13.32;;
78931;SDS011;68331;53.362;55.932;2023-09-19T06:40:10;18.75;;;10.80;;
78931;SDS011;68331;53.362;55.932;2023-09-19T06:42:44;21.88;;;10.73;;
78931;SDS011;68331;53.362;55.932;2023-09-19T06:45:16;21.45;;;11.50;;
78931;SDS011;68331;53.362;55.932;2023-09-19T06:47:47;17.10;;;9.68;;
78931;SDS011;68331;53.362;55.932;2023-09-19T06:50:17;17.27;;;11.10;;
78931;SDS011;68331;53.362;55.932;2023-09-19T06:52:44;21.95;;;11.05;;
78931;SDS011;68331;53.362;55.932;2023-09-19T06:55:14;13.88;;;8.93;;
78931;SDS011;68331;53.362;55.932;2023-09-19T06:57:42;11.57;;;7.00;;
78931;SDS011;68331;53.362;55.932;2023-09-19T07:00:12;7.85;;;6.57;;
78931;SDS011;68331;53.362;55.932;2023-09-19T07:05:32;8.68;;;5.97;;
78931;SDS011;68331;53.362;55.932;2023-09-19T07:08:01;6.63;;;4.75;;
78931;SDS011;68331;53.362;55.932;2023-09-19T07:13:03;10.63;;;6.80;;
78931;SDS011;68331;53.362;55.932;2023-09-19T07:15:32;7.32;;;5.35;;
78931;SDS011;68331;53.362;55.932;2023-09-19T07:18:04;6.25;;;4.32;;
78931;SDS011;68331;53.362;55.932;2023-09-19T07:20:32;6.72;;;4.45;;
78931;SDS011;68331;53.362;55.932;2023-09-19T07:23:00;10.50;;;5.55;;
78931;SDS011;68331;53.362;55.932;2023-09-19T07:25:29;9.60;;;4.85;;
78931;SDS011;68331;53.362;55.932;2023-09-19T07:27:56;7.22;;;4.65;;
78931;SDS011;68331;53.362;55.932;2023-09-19T07:30:26;7.45;;;4.43;;
78931;SDS011;68331;53.362;55.932;2023-09-19T07:32:53;7.20;;;3.83;;
78931;SDS011;68331;53.362;55.932;2023-09-19T07:35:18;6.55;;;4.90;;
78931;SDS011;68331;53.362;55.932;2023-09-19T07:37:48;10.35;;;4.90;;
78931;SDS011;68331;53.362;55.932;2023-09-19T07:40:15;6.80;;;5.18;;
78931;SDS011;68331;53.362;55.932;2023-09-19T07:42:42;5.18;;;4.38;;
78931;SDS011;68331;53.362;55.932;2023-09-19T07:45:10;5.88;;;4.32;;
78931;SDS011;68331;53.362;55.932;2023-09-19T07:47:45;11.00;;;4.75;;
78931;SDS011;68331;53.362;55.932;2023-09-19T07:52:38;11.82;;;5.72;;
78931;SDS011;68331;53.362;55.932;2023-09-19T07:55:05;18.63;;;6.20;;
78931;SDS011;68331;53.362;55.932;2023-09-19T07:57:37;13.93;;;5.45;;
78931;SDS011;68331;53.362;55.932;2023-09-19T08:00:03;6.82;;;5.13;;
78931;SDS011;68331;53.362;55.932;2023-09-19T08:02:37;6.85;;;4.93;;
78931;SDS011;68331;53.362;55.932;2023-09-19T08:05:04;8.73;;;5.70;;
78931;SDS011;68331;53.362;55.932;2023-09-19T08:07:37;8.88;;;4.68;;
78931;SDS011;68331;53.362;55.932;2023-09-19T08:10:04;7.93;;;5.07;;
78931;SDS011;68331;53.362;55.932;2023-09-19T08:12:36;7.50;;;5.30;;
78931;SDS011;68331;53.362;55.932;2023-09-19T08:15:05;7.97;;;5.97;;
78931;SDS011;68331;53.362;55.932;2023-09-19T08:17:34;15.40;;;5.93;;
78931;SDS011;68331;53.362;55.932;2023-09-19T08:22:29;8.05;;;5.75;;
78931;SDS011;68331;53.362;55.932;2023-09-19T08:24:57;14.50;;;6.82;;
78931;SDS011;68331;53.362;55.932;2023-09-19T08:27:23;11.35;;;7.28;;
78931;SDS011;68331;53.362;55.932;2023-09-19T08:29:53;8.65;;;5.60;;
78931;SDS011;68331;53.362;55.932;2023-09-19T08:32:19;9.23;;;5.85;;
78931;SDS011;68331;53.362;55.932;2023-09-19T08:34:49;7.68;;;5.65;;
78931;SDS011;68331;53.362;55.932;2023-09-19T08:37:16;8.95;;;5.22;;
78931;SDS011;68331;53.362;55.932;2023-09-19T08:39:42;7.70;;;4.70;;
78931;SDS011;68331;53.362;55.932;2023-09-19T08:42:10;7.47;;;5.30;;
78931;SDS011;68331;53.362;55.932;2023-09-19T08:44:38;9.48;;;5.57;;
78931;SDS011;68331;53.362;55.932;2023-09-19T08:47:10;5.25;;;4.68;;
78931;SDS011;68331;53.362;55.932;2023-09-19T08:49:53;7.85;;;5.07;;
78931;SDS011;68331;53.362;55.932;2023-09-19T08:52:25;7.35;;;4.90;;
78931;SDS011;68331;53.362;55.932;2023-09-19T08:54:55;10.50;;;4.78;;
78931;SDS011;68331;53.362;55.932;2023-09-19T08:57:28;5.13;;;4.13;;
78931;SDS011;68331;53.362;55.932;2023-09-19T08:59:57;6.00;;;4.43;;
78931;SDS011;68331;53.362;55.932;2023-09-19T09:02:25;5.72;;;3.95;;
78931;SDS011;68331;53.362;55.932;2023-09-19T09:04:52;5.22;;;4.53;;
78931;SDS011;68331;53.362;55.932;2023-09-19T09:07:20;6.75;;;4.90;;
78931;SDS011;68331;53.362;55.932;2023-09-19T09:09:48;8.68;;;5.00;;
78931;SDS011;68331;53.362;55.932;2023-09-19T09:12:23;13.50;;;9.63;;
78931;SDS011;68331;53.362;55.932;2023-09-19T09:20:36;7.50;;;6.00;;
78931;SDS011;68331;53.362;55.932;2023-09-19T09:23:02;12.35;;;8.27;;
78931;SDS011;68331;53.362;55.932;2023-09-19T09:28:23;230.23;;;25.23;;
78931;SDS011;68331;53.362;55.932;2023-09-19T09:30:50;24.15;;;7.80;;
78931;SDS011;68331;53.362;55.932;2023-09-19T09:33:17;8.52;;;5.25;;
78931;SDS011;68331;53.362;55.932;2023-09-19T09:35:59;12.32;;;8.48;;
78931;SDS011;68331;53.362;55.932;2023-09-19T09:38:27;17.05;;;9.98;;
78931;SDS011;68331;53.362;55.932;2023-09-19T09:40:59;16.10;;;8.63;;
78931;SDS011;68331;53.362;55.932;2023-09-19T09:46:11;12.57;;;6.72;;
78931;SDS011;68331;53.362;55.932;2023-09-19T09:48:47;9.18;;;5.97;;
78931;SDS011;68331;53.362;55.932;2023-09-19T09:51:45;9.10;;;5.50;;
78931;SDS011;68331;53.362;55.932;2023-09-19T09:54:25;9.95;;;5.18;;
78931;SDS011;68331;53.362;55.932;2023-09-19T09:57:08;7.50;;;6.00;;
78931;SDS011;68331;53.362;55.932;2023-09-19T09:59:53;10.82;;;5.70;;
78931;SDS011;68331;53.362;55.932;2023-09-19T10:02:24;8.30;;;5.30;;
78931;SDS011;68331;53.362;55.932;2023-09-19T10:05:15;12.88;;;6.55;;
78931;SDS011;68331;53.362;55.932;2023-09-19T10:07:54;18.30;;;7.55;;
78931;SDS011;68331;53.362;55.932;2023-09-19T10:13:10;8.68;;;6.00;;
78931;SDS011;68331;53.362;55.932;2023-09-19T10:15:44;8.85;;;6.13;;
78931;SDS011;68331;53.362;55.932;2023-09-19T10:18:21;8.63;;;5.75;;
78931;SDS011;68331;53.362;55.932;2023-09-19T10:20:51;8.45;;;6.32;;
78931;SDS011;68331;53.362;55.932;2023-09-19T10:23:19;11.05;;;6.05;;
78931;SDS011;68331;53.362;55.932;2023-09-19T10:25:49;10.13;;;6.63;;
78931;SDS011;68331;53.362;55.932;2023-09-19T10:30:48;15.05;;;7.47;;
78931;SDS011;68331;53.362;55.932;2023-09-19T10:33:19;10.30;;;6.82;;
78931;SDS011;68331;53.362;55.932;2023-09-19T10:35:48;10.57;;;6.97;;
78931;SDS011;68331;53.362;55.932;2023-09-19T10:38:18;9.80;;;5.97;;
78931;SDS011;68331;53.362;55.932;2023-09-19T10:40:51;10.23;;;5.70;;
78931;SDS011;68331;53.362;55.932;2023-09-19T10:43:25;7.20;;;5.88;;
78931;SDS011;68331;53.362;55.932;2023-09-19T10:45:59;9.77;;;6.40;;
78931;SDS011;68331;53.362;55.932;2023-09-19T10:48:31;7.28;;;6.00;;
78931;SDS011;68331;53.362;55.932;2023-09-19T10:51:01;8.90;;;6.00;;
78931;SDS011;68331;53.362;55.932;2023-09-19T10:53:42;9.50;;;5.95;;
78931;SDS011;68331;53.362;55.932;2023-09-19T10:56:24;8.32;;;6.93;;
78931;SDS011;68331;53.362;55.932;2023-09-19T10:59:16;8.90;;;6.97;;
78931;SDS011;68331;53.362;55.932;2023-09-19T11:07:07;14.23;;;8.10;;
78931;SDS011;68331;53.362;55.932;2023-09-19T11:14:54;13.45;;;10.05;;
78931;SDS011;68331;53.362;55.932;2023-09-19T11:30:40;11.20;;;6.25;;
78931;SDS011;68331;53.362;55.932;2023-09-19T11:33:23;8.68;;;6.45;;
78931;SDS011;68331;53.362;55.932;2023-09-19T11:43:46;10.18;;;5.95;;
78931;SDS011;68331;53.362;55.932;2023-09-19T11:49:17;8.35;;;5.82;;
78931;SDS011;68331;53.362;55.932;2023-09-19T11:51:52;7.78;;;5.70;;
78931;SDS011;68331;53.362;55.932;2023-09-19T11:54:19;7.07;;;5.35;;
78931;SDS011;68331;53.362;55.932;2023-09-19T11:56:50;9.90;;;5.38;;
78931;SDS011;68331;53.362;55.932;2023-09-19T11:59:20;6.70;;;5.57;;
78931;SDS011;68331;53.362;55.932;2023-09-19T12:01:54;6.78;;;4.97;;
78931;SDS011;68331;53.362;55.932;2023-09-19T12:07:10;8.27;;;5.60;;
78931;SDS011;68331;53.362;55.932;2023-09-19T12:09:41;6.85;;;5.25;;
78931;SDS011;68331;53.362;55.932;2023-09-19T12:12:25;6.43;;;5.43;;
78931;SDS011;68331;53.362;55.932;2023-09-19T12:15:01;7.47;;;5.38;;
78931;SDS011;68331;53.362;55.932;2023-09-19T12:17:38;6.53;;;5.45;;
78931;SDS011;68331;53.362;55.932;2023-09-19T12:20:06;7.15;;;4.53;;
78931;SDS011;68331;53.362;55.932;2023-09-19T12:22:43;6.85;;;4.95;;
78931;SDS011;68331;53.362;55.932;2023-09-19T12:25:10;7.07;;;5.18;;
78931;SDS011;68331;53.362;55.932;2023-09-19T12:27:44;10.70;;;5.70;;
78931;SDS011;68331;53.362;55.932;2023-09-19T12:30:12;7.22;;;4.28;;
78931;SDS011;68331;53.362;55.932;2023-09-19T12:32:40;8.00;;;4.65;;
78931;SDS011;68331;53.362;55.932;2023-09-19T12:37:43;7.93;;;5.35;;
78931;SDS011;68331;53.362;55.932;2023-09-19T12:40:13;6.78;;;4.22;;
78931;SDS011;68331;53.362;55.932;2023-09-19T12:42:43;6.10;;;4.85;;
78931;SDS011;68331;53.362;55.932;2023-09-19T12:45:10;7.35;;;4.50;;
78931;SDS011;68331;53.362;55.932;2023-09-19T12:47:41;9.73;;;4.95;;
78931;SDS011;68331;53.362;55.932;2023-09-19T12:51:06;7.03;;;4.65;;
78931;SDS011;68331;53.362;55.932;2023-09-19T12:53:36;6.30;;;4.60;;
78931;SDS011;68331;53.362;55.932;2023-09-19T12:56:17;7.45;;;4.10;;
78931;SDS011;68331;53.362;55.932;2023-09-19T12:58:53;8.50;;;4.22;;
78931;SDS011;68331;53.362;55.932;2023-09-19T13:01:29;10.75;;;4.05;;
78931;SDS011;68331;53.362;55.932;2023-09-19T13:09:15;6.00;;;4.93;;
78931;SDS011;68331;53.362;55.932;2023-09-19T13:11:43;9.43;;;5.22;;
78931;SDS011;68331;53.362;55.932;2023-09-19T13:14:21;5.90;;;4.82;;
78931;SDS011;68331;53.362;55.932;2023-09-19T13:16:54;6.93;;;4.90;;
78931;SDS011;68331;53.362;55.932;2023-09-19T13:19:35;7.30;;;4.95;;
78931;SDS011;68331;53.362;55.932;2023-09-19T13:25:16;7.53;;;5.43;;
78931;SDS011;68331;53.362;55.932;2023-09-19T13:27:53;5.93;;;4.97;;
78931;SDS011;68331;53.362;55.932;2023-09-19T13:30:37;10.00;;;4.90;;
78931;SDS011;68331;53.362;55.932;2023-09-19T13:33:08;10.85;;;5.10;;
78931;SDS011;68331;53.362;55.932;2023-09-19T13:35:39;8.13;;;5.30;;
78931;SDS011;68331;53.362;55.932;2023-09-19T13:38:10;7.60;;;5.15;;
78931;SDS011;68331;53.362;55.932;2023-09-19T13:41:10;9.93;;;5.57;;
78931;SDS011;68331;53.362;55.932;2023-09-19T13:43:37;9.60;;;5.25;;
78931;SDS011;68331;53.362;55.932;2023-09-19T13:46:04;5.22;;;4.68;;
78931;SDS011;68331;53.362;55.932;2023-09-19T13:48:33;7.47;;;4.97;;
78931;SDS011;68331;53.362;55.932;2023-09-19T13:51:02;6.43;;;4.85;;
78931;SDS011;68331;53.362;55.932;2023-09-19T13:53:30;8.15;;;4.68;;
78931;SDS011;68331;53.362;55.932;2023-09-19T13:55:58;5.53;;;3.92;;
78931;SDS011;68331;53.362;55.932;2023-09-19T13:58:29;5.53;;;4.72;;
78931;SDS011;68331;53.362;55.932;2023-09-19T14:00:57;8.65;;;4.50;;
78931;SDS011;68331;53.362;55.932;2023-09-19T14:03:30;10.43;;;5.65;;
78931;SDS011;68331;53.362;55.932;2023-09-19T14:06:01;9.90;;;5.30;;
78931;SDS011;68331;53.362;55.932;2023-09-19T14:08:57;9.35;;;5.00;;
78931;SDS011;68331;53.362;55.932;2023-09-19T14:11:23;10.82;;;6.85;;
78931;SDS011;68331;53.362;55.932;2023-09-19T14:14:21;8.77;;;6.95;;
78931;SDS011;68331;53.362;55.932;2023-09-19T14:16:49;10.95;;;7.10;;
78931;SDS011;68331;53.362;55.932;2023-09-19T14:19:15;10.52;;;7.45;;
78931;SDS011;68331;53.362;55.932;2023-09-19T14:21:51;10.13;;;6.47;;
78931;SDS011;68331;53.362;55.932;2023-09-19T14:24:20;13.05;;;7.60;;
78931;SDS011;68331;53.362;55.932;2023-09-19T14:26:48;20.15;;;7.65;;
78931;SDS011;68331;53.362;55.932;2023-09-19T14:29:15;17.10;;;7.57;;
78931;SDS011;68331;53.362;55.932;2023-09-19T14:31:43;12.50;;;7.47;;
78931;SDS011;68331;53.362;55.932;2023-09-19T14:34:09;15.15;;;7.50;;
78931;SDS011;68331;53.362;55.932;2023-09-19T14:36:36;13.93;;;8.00;;
78931;SDS011;68331;53.362;55.932;2023-09-19T14:39:04;13.63;;;7.03;;
78931;SDS011;68331;53.362;55.932;2023-09-19T14:41:30;12.95;;;8.07;;
78931;SDS011;68331;53.362;55.932;2023-09-19T14:43:57;18.83;;;10.27;;
78931;SDS011;68331;53.362;55.932;2023-09-19T14:46:23;16.15;;;9.90;;
78931;SDS011;68331;53.362;55.932;2023-09-19T14:48:52;18.48;;;10.77;;
78931;SDS011;68331;53.362;55.932;2023-09-19T14:51:19;19.27;;;10.65;;
78931;SDS011;68331;53.362;55.932;2023-09-19T14:53:45;16.70;;;9.63;;
78931;SDS011;68331;53.362;55.932;2023-09-19T14:56:13;16.75;;;10.35;;
78931;SDS011;68331;53.362;55.932;2023-09-19T14:58:44;14.10;;;9.27;;
78931;SDS011;68331;53.362;55.932;2023-09-19T15:01:11;14.02;;;8.63;;
78931;SDS011;68331;53.362;55.932;2023-09-19T15:03:39;12.38;;;7.75;;
78931;SDS011;68331;53.362;55.932;2023-09-19T15:06:07;14.90;;;8.02;;
78931;SDS011;68331;53.362;55.932;2023-09-19T15:08:35;18.98;;;13.93;;
78931;SDS011;68331;53.362;55.932;2023-09-19T15:11:09;14.48;;;8.02;;
78931;SDS011;68331;53.362;55.932;2023-09-19T15:13:36;11.60;;;6.82;;
78931;SDS011;68331;53.362;55.932;2023-09-19T15:16:06;12.82;;;7.93;;
78931;SDS011;68331;53.362;55.932;2023-09-19T15:18:39;12.95;;;7.07;;
78931;SDS011;68331;53.362;55.932;2023-09-19T15:21:08;13.30;;;7.25;;
78931;SDS011;68331;53.362;55.932;2023-09-19T15:23:37;13.25;;;6.22;;
78931;SDS011;68331;53.362;55.932;2023-09-19T15:26:05;11.18;;;6.75;;
78931;SDS011;68331;53.362;55.932;2023-09-19T15:28:34;11.52;;;6.95;;
78931;SDS011;68331;53.362;55.932;2023-09-19T15:36:05;9.90;;;6.30;;
78931;SDS011;68331;53.362;55.932;2023-09-19T15:41:19;9.45;;;5.15;;
78931;SDS011;68331;53.362;55.932;2023-09-19T15:43:46;7.75;;;6.55;;
78931;SDS011;68331;53.362;55.932;2023-09-19T15:46:13;8.57;;;6.60;;
78931;SDS011;68331;53.362;55.932;2023-09-19T15:48:41;9.60;;;5.93;;
78931;SDS011;68331;53.362;55.932;2023-09-19T15:51:12;14.82;;;6.93;;
78931;SDS011;68331;53.362;55.932;2023-09-19T15:53:43;10.43;;;6.30;;
78931;SDS011;68331;53.362;55.932;2023-09-19T15:56:11;9.50;;;6.95;;
78931;SDS011;68331;53.362;55.932;2023-09-19T15:58:37;11.15;;;5.55;;
78931;SDS011;68331;53.362;55.932;2023-09-19T16:01:06;10.35;;;6.03;;
78931;SDS011;68331;53.362;55.932;2023-09-19T16:03:35;10.50;;;6.93;;
78931;SDS011;68331;53.362;55.932;2023-09-19T16:06:07;9.55;;;6.47;;
78931;SDS011;68331;53.362;55.932;2023-09-19T16:08:44;10.63;;;5.80;;
78931;SDS011;68331;53.362;55.932;2023-09-19T16:11:13;8.60;;;5.20;;
78931;SDS011;68331;53.362;55.932;2023-09-19T16:16:08;10.35;;;4.82;;
78931;SDS011;68331;53.362;55.932;2023-09-19T16:21:26;6.70;;;5.95;;
78931;SDS011;68331;53.362;55.932;2023-09-19T16:23:53;8.95;;;6.22;;
78931;SDS011;68331;53.362;55.932;2023-09-19T16:26:22;8.43;;;5.82;;
78931;SDS011;68331;53.362;55.932;2023-09-19T16:28:50;7.00;;;5.95;;
78931;SDS011;68331;53.362;55.932;2023-09-19T16:31:17;7.93;;;5.93;;
78931;SDS011;68331;53.362;55.932;2023-09-19T16:33:44;10.35;;;5.75;;
78931;SDS011;68331;53.362;55.932;2023-09-19T16:36:13;8.57;;;6.22;;
78931;SDS011;68331;53.362;55.932;2023-09-19T16:38:41;9.75;;;6.00;;
78931;SDS011;68331;53.362;55.932;2023-09-19T16:41:09;8.57;;;5.25;;